<?xml version="1.0" encoding="UTF-8" standalone="no" ?>
<gpx xmlns="http://www.topografix.com/GPX/1/1" xmlns:xsi="http://www.w3.org/2001/XMLSchema-instance" xsi:schemaLocation="http://www.topografix.com/GPX/1/1 http://www.topografix.com/GPX/1/1/gpx.xsd" version="1.1" creator="VisuGPX - https://www.visugpx.com">
  <metadata>
    <name>Les Cloches de Barles</name>
    <desc><![CDATA[Lieux fréquentés par les troupeaux.
Attention de ne pas déranger les patous.]]></desc>
  </metadata>
  <trk>
    <name><![CDATA[2021-10-23 11:43:06]]></name>
    <trkseg>
      <trkpt lat="44.23559" lon="6.23039">
        <ele>1885.77</ele>
        <time>2021-10-23T10:00:10Z</time>
      </trkpt>
      <trkpt lat="44.23559" lon="6.23039">
        <ele>1886</ele>
        <time>2021-10-23T10:00:11Z</time>
      </trkpt>
      <trkpt lat="44.23558" lon="6.23038">
        <ele>1886.49</ele>
        <time>2021-10-23T10:00:39Z</time>
      </trkpt>
      <trkpt lat="44.23558" lon="6.23037">
        <ele>1886.45</ele>
        <time>2021-10-23T10:01:00Z</time>
      </trkpt>
      <trkpt lat="44.23557" lon="6.23037">
        <ele>1886.61</ele>
        <time>2021-10-23T10:01:24Z</time>
      </trkpt>
      <trkpt lat="44.2357" lon="6.23035">
        <ele>1885.19</ele>
        <time>2021-10-23T10:01:46Z</time>
      </trkpt>
      <trkpt lat="44.23574" lon="6.23035">
        <ele>1884.89</ele>
        <time>2021-10-23T10:02:09Z</time>
      </trkpt>
      <trkpt lat="44.23585" lon="6.23035">
        <ele>1885.77</ele>
        <time>2021-10-23T10:02:30Z</time>
      </trkpt>
      <trkpt lat="44.23589" lon="6.23036">
        <ele>1885.56</ele>
        <time>2021-10-23T10:03:05Z</time>
      </trkpt>
      <trkpt lat="44.23598" lon="6.23032">
        <ele>1882.35</ele>
        <time>2021-10-23T10:03:21Z</time>
      </trkpt>
      <trkpt lat="44.23605" lon="6.2303">
        <ele>1879.13</ele>
        <time>2021-10-23T10:03:33Z</time>
      </trkpt>
      <trkpt lat="44.23613" lon="6.23027">
        <ele>1876.04</ele>
        <time>2021-10-23T10:03:46Z</time>
      </trkpt>
      <trkpt lat="44.23619" lon="6.23027">
        <ele>1874.01</ele>
        <time>2021-10-23T10:03:55Z</time>
      </trkpt>
      <trkpt lat="44.23627" lon="6.23025">
        <ele>1871.04</ele>
        <time>2021-10-23T10:04:05Z</time>
      </trkpt>
      <trkpt lat="44.23641" lon="6.23025">
        <ele>1867.61</ele>
        <time>2021-10-23T10:04:17Z</time>
      </trkpt>
      <trkpt lat="44.23654" lon="6.23026">
        <ele>1864.51</ele>
        <time>2021-10-23T10:04:29Z</time>
      </trkpt>
      <trkpt lat="44.23675" lon="6.23031">
        <ele>1861.8</ele>
        <time>2021-10-23T10:04:46Z</time>
      </trkpt>
      <trkpt lat="44.23693" lon="6.23041">
        <ele>1859.66</ele>
        <time>2021-10-23T10:05:03Z</time>
      </trkpt>
      <trkpt lat="44.23715" lon="6.23054">
        <ele>1856.58</ele>
        <time>2021-10-23T10:05:23Z</time>
      </trkpt>
      <trkpt lat="44.23724" lon="6.23056">
        <ele>1853.31</ele>
        <time>2021-10-23T10:05:34Z</time>
      </trkpt>
      <trkpt lat="44.2373" lon="6.23059">
        <ele>1850.18</ele>
        <time>2021-10-23T10:05:44Z</time>
      </trkpt>
      <trkpt lat="44.23737" lon="6.23057">
        <ele>1846.94</ele>
        <time>2021-10-23T10:05:53Z</time>
      </trkpt>
      <trkpt lat="44.23743" lon="6.23059">
        <ele>1843.84</ele>
        <time>2021-10-23T10:06:04Z</time>
      </trkpt>
      <trkpt lat="44.23752" lon="6.23062">
        <ele>1840.73</ele>
        <time>2021-10-23T10:06:14Z</time>
      </trkpt>
      <trkpt lat="44.23762" lon="6.23064">
        <ele>1837.57</ele>
        <time>2021-10-23T10:06:26Z</time>
      </trkpt>
      <trkpt lat="44.2377" lon="6.2307">
        <ele>1834.47</ele>
        <time>2021-10-23T10:06:35Z</time>
      </trkpt>
      <trkpt lat="44.23777" lon="6.23073">
        <ele>1831.33</ele>
        <time>2021-10-23T10:06:46Z</time>
      </trkpt>
      <trkpt lat="44.23785" lon="6.23073">
        <ele>1828.28</ele>
        <time>2021-10-23T10:06:59Z</time>
      </trkpt>
      <trkpt lat="44.23787" lon="6.23074">
        <ele>1825.23</ele>
        <time>2021-10-23T10:07:08Z</time>
      </trkpt>
      <trkpt lat="44.23793" lon="6.23059">
        <ele>1822.04</ele>
        <time>2021-10-23T10:07:24Z</time>
      </trkpt>
      <trkpt lat="44.23794" lon="6.23053">
        <ele>1818.91</ele>
        <time>2021-10-23T10:07:36Z</time>
      </trkpt>
      <trkpt lat="44.23798" lon="6.23044">
        <ele>1816.18</ele>
        <time>2021-10-23T10:07:45Z</time>
      </trkpt>
      <trkpt lat="44.23798" lon="6.23029">
        <ele>1812.73</ele>
        <time>2021-10-23T10:07:55Z</time>
      </trkpt>
      <trkpt lat="44.23797" lon="6.23018">
        <ele>1809.59</ele>
        <time>2021-10-23T10:08:04Z</time>
      </trkpt>
      <trkpt lat="44.23795" lon="6.23011">
        <ele>1808.2</ele>
        <time>2021-10-23T10:08:11Z</time>
      </trkpt>
      <trkpt lat="44.23794" lon="6.23009">
        <ele>1807.65</ele>
        <time>2021-10-23T10:08:13Z</time>
      </trkpt>
      <trkpt lat="44.23792" lon="6.23003">
        <ele>1806.2</ele>
        <time>2021-10-23T10:08:17Z</time>
      </trkpt>
      <trkpt lat="44.23786" lon="6.2299">
        <ele>1802.77</ele>
        <time>2021-10-23T10:08:27Z</time>
      </trkpt>
      <trkpt lat="44.23781" lon="6.22982">
        <ele>1800.82</ele>
        <time>2021-10-23T10:08:35Z</time>
      </trkpt>
      <trkpt lat="44.23773" lon="6.22967">
        <ele>1797.44</ele>
        <time>2021-10-23T10:08:49Z</time>
      </trkpt>
      <trkpt lat="44.2377" lon="6.22953">
        <ele>1794.3</ele>
        <time>2021-10-23T10:09:01Z</time>
      </trkpt>
      <trkpt lat="44.23767" lon="6.22942">
        <ele>1790.92</ele>
        <time>2021-10-23T10:09:11Z</time>
      </trkpt>
      <trkpt lat="44.23767" lon="6.22929">
        <ele>1787.88</ele>
        <time>2021-10-23T10:09:21Z</time>
      </trkpt>
      <trkpt lat="44.23768" lon="6.22919">
        <ele>1784.79</ele>
        <time>2021-10-23T10:09:30Z</time>
      </trkpt>
      <trkpt lat="44.23765" lon="6.22911">
        <ele>1782.15</ele>
        <time>2021-10-23T10:09:37Z</time>
      </trkpt>
      <trkpt lat="44.23764" lon="6.22904">
        <ele>1780.48</ele>
        <time>2021-10-23T10:09:42Z</time>
      </trkpt>
      <trkpt lat="44.23759" lon="6.2289">
        <ele>1776.9</ele>
        <time>2021-10-23T10:09:53Z</time>
      </trkpt>
      <trkpt lat="44.23758" lon="6.22886">
        <ele>1775.71</ele>
        <time>2021-10-23T10:09:56Z</time>
      </trkpt>
      <trkpt lat="44.23754" lon="6.2288">
        <ele>1773.47</ele>
        <time>2021-10-23T10:10:02Z</time>
      </trkpt>
      <trkpt lat="44.23752" lon="6.22871">
        <ele>1770.9</ele>
        <time>2021-10-23T10:10:10Z</time>
      </trkpt>
      <trkpt lat="44.23749" lon="6.22855">
        <ele>1767.41</ele>
        <time>2021-10-23T10:10:20Z</time>
      </trkpt>
      <trkpt lat="44.23746" lon="6.22845">
        <ele>1764.22</ele>
        <time>2021-10-23T10:10:29Z</time>
      </trkpt>
      <trkpt lat="44.23743" lon="6.22835">
        <ele>1761.11</ele>
        <time>2021-10-23T10:10:38Z</time>
      </trkpt>
      <trkpt lat="44.23746" lon="6.22826">
        <ele>1758.12</ele>
        <time>2021-10-23T10:10:47Z</time>
      </trkpt>
      <trkpt lat="44.23745" lon="6.22816">
        <ele>1754.7</ele>
        <time>2021-10-23T10:10:54Z</time>
      </trkpt>
      <trkpt lat="44.23746" lon="6.22813">
        <ele>1753.6</ele>
        <time>2021-10-23T10:10:57Z</time>
      </trkpt>
      <trkpt lat="44.23746" lon="6.22799">
        <ele>1749.93</ele>
        <time>2021-10-23T10:11:07Z</time>
      </trkpt>
      <trkpt lat="44.23746" lon="6.22786">
        <ele>1746.69</ele>
        <time>2021-10-23T10:11:16Z</time>
      </trkpt>
      <trkpt lat="44.23751" lon="6.22771">
        <ele>1743.51</ele>
        <time>2021-10-23T10:11:26Z</time>
      </trkpt>
      <trkpt lat="44.23759" lon="6.22749">
        <ele>1740.26</ele>
        <time>2021-10-23T10:11:41Z</time>
      </trkpt>
      <trkpt lat="44.23764" lon="6.2272">
        <ele>1737.14</ele>
        <time>2021-10-23T10:11:57Z</time>
      </trkpt>
      <trkpt lat="44.23772" lon="6.22695">
        <ele>1735.18</ele>
        <time>2021-10-23T10:12:13Z</time>
      </trkpt>
      <trkpt lat="44.23779" lon="6.22668">
        <ele>1735.67</ele>
        <time>2021-10-23T10:12:30Z</time>
      </trkpt>
      <trkpt lat="44.23785" lon="6.22644">
        <ele>1737.36</ele>
        <time>2021-10-23T10:12:46Z</time>
      </trkpt>
      <trkpt lat="44.23791" lon="6.22611">
        <ele>1738.43</ele>
        <time>2021-10-23T10:13:05Z</time>
      </trkpt>
      <trkpt lat="44.23799" lon="6.2258">
        <ele>1738.82</ele>
        <time>2021-10-23T10:13:25Z</time>
      </trkpt>
      <trkpt lat="44.23806" lon="6.22543">
        <ele>1738.09</ele>
        <time>2021-10-23T10:13:45Z</time>
      </trkpt>
      <trkpt lat="44.23813" lon="6.22525">
        <ele>1738.32</ele>
        <time>2021-10-23T10:13:57Z</time>
      </trkpt>
      <trkpt lat="44.2382" lon="6.22503">
        <ele>1738.52</ele>
        <time>2021-10-23T10:14:13Z</time>
      </trkpt>
      <trkpt lat="44.23823" lon="6.22496">
        <ele>1737.8</ele>
        <time>2021-10-23T10:14:25Z</time>
      </trkpt>
      <trkpt lat="44.23824" lon="6.22492">
        <ele>1737.76</ele>
        <time>2021-10-23T10:14:27Z</time>
      </trkpt>
      <trkpt lat="44.23824" lon="6.2249">
        <ele>1737.71</ele>
        <time>2021-10-23T10:14:28Z</time>
      </trkpt>
      <trkpt lat="44.23825" lon="6.22489">
        <ele>1737.65</ele>
        <time>2021-10-23T10:14:29Z</time>
      </trkpt>
      <trkpt lat="44.23825" lon="6.22487">
        <ele>1737.58</ele>
        <time>2021-10-23T10:14:30Z</time>
      </trkpt>
      <trkpt lat="44.23827" lon="6.22481">
        <ele>1737.02</ele>
        <time>2021-10-23T10:14:34Z</time>
      </trkpt>
      <trkpt lat="44.23831" lon="6.22461">
        <ele>1739.41</ele>
        <time>2021-10-23T10:14:51Z</time>
      </trkpt>
      <trkpt lat="44.23833" lon="6.22446">
        <ele>1742.46</ele>
        <time>2021-10-23T10:15:03Z</time>
      </trkpt>
      <trkpt lat="44.23832" lon="6.22431">
        <ele>1743.93</ele>
        <time>2021-10-23T10:15:13Z</time>
      </trkpt>
      <trkpt lat="44.23832" lon="6.22427">
        <ele>1744.19</ele>
        <time>2021-10-23T10:15:15Z</time>
      </trkpt>
      <trkpt lat="44.23832" lon="6.22425">
        <ele>1744.38</ele>
        <time>2021-10-23T10:15:17Z</time>
      </trkpt>
      <trkpt lat="44.23829" lon="6.22399">
        <ele>1746.46</ele>
        <time>2021-10-23T10:15:34Z</time>
      </trkpt>
      <trkpt lat="44.2383" lon="6.2237">
        <ele>1747.84</ele>
        <time>2021-10-23T10:15:52Z</time>
      </trkpt>
      <trkpt lat="44.23834" lon="6.22347">
        <ele>1750.82</ele>
        <time>2021-10-23T10:16:09Z</time>
      </trkpt>
      <trkpt lat="44.23837" lon="6.22329">
        <ele>1753.88</ele>
        <time>2021-10-23T10:16:22Z</time>
      </trkpt>
      <trkpt lat="44.23838" lon="6.22311">
        <ele>1755.95</ele>
        <time>2021-10-23T10:16:36Z</time>
      </trkpt>
      <trkpt lat="44.2384" lon="6.22291">
        <ele>1758.62</ele>
        <time>2021-10-23T10:16:52Z</time>
      </trkpt>
      <trkpt lat="44.23844" lon="6.22277">
        <ele>1761.69</ele>
        <time>2021-10-23T10:17:07Z</time>
      </trkpt>
      <trkpt lat="44.23846" lon="6.22266">
        <ele>1764.83</ele>
        <time>2021-10-23T10:17:23Z</time>
      </trkpt>
      <trkpt lat="44.23845" lon="6.22267">
        <ele>1765.74</ele>
        <time>2021-10-23T10:17:43Z</time>
      </trkpt>
      <trkpt lat="44.23848" lon="6.22262">
        <ele>1765.72</ele>
        <time>2021-10-23T10:18:01Z</time>
      </trkpt>
      <trkpt lat="44.2385" lon="6.2225">
        <ele>1768.73</ele>
        <time>2021-10-23T10:18:19Z</time>
      </trkpt>
      <trkpt lat="44.23851" lon="6.2225">
        <ele>1770.34</ele>
        <time>2021-10-23T10:18:49Z</time>
      </trkpt>
      <trkpt lat="44.2385" lon="6.22251">
        <ele>1770.2</ele>
        <time>2021-10-23T10:19:22Z</time>
      </trkpt>
      <trkpt lat="44.23849" lon="6.22241">
        <ele>1769.96</ele>
        <time>2021-10-23T10:19:45Z</time>
      </trkpt>
      <trkpt lat="44.23852" lon="6.22232">
        <ele>1769.96</ele>
        <time>2021-10-23T10:20:02Z</time>
      </trkpt>
      <trkpt lat="44.23854" lon="6.22214">
        <ele>1779.55</ele>
        <time>2021-10-23T10:20:25Z</time>
      </trkpt>
      <trkpt lat="44.23854" lon="6.22213">
        <ele>1779.67</ele>
        <time>2021-10-23T10:20:26Z</time>
      </trkpt>
      <trkpt lat="44.23857" lon="6.22199">
        <ele>1782.86</ele>
        <time>2021-10-23T10:20:43Z</time>
      </trkpt>
      <trkpt lat="44.23856" lon="6.22184">
        <ele>1785.87</ele>
        <time>2021-10-23T10:20:59Z</time>
      </trkpt>
      <trkpt lat="44.23857" lon="6.22167">
        <ele>1788.95</ele>
        <time>2021-10-23T10:21:13Z</time>
      </trkpt>
      <trkpt lat="44.23855" lon="6.2215">
        <ele>1791.54</ele>
        <time>2021-10-23T10:21:31Z</time>
      </trkpt>
      <trkpt lat="44.23857" lon="6.22135">
        <ele>1794.34</ele>
        <time>2021-10-23T10:21:47Z</time>
      </trkpt>
      <trkpt lat="44.23859" lon="6.22115">
        <ele>1796.5</ele>
        <time>2021-10-23T10:22:03Z</time>
      </trkpt>
      <trkpt lat="44.23861" lon="6.22103">
        <ele>1797.17</ele>
        <time>2021-10-23T10:22:20Z</time>
      </trkpt>
      <trkpt lat="44.23861" lon="6.22091">
        <ele>1797.84</ele>
        <time>2021-10-23T10:22:40Z</time>
      </trkpt>
      <trkpt lat="44.23862" lon="6.22078">
        <ele>1799.25</ele>
        <time>2021-10-23T10:22:56Z</time>
      </trkpt>
      <trkpt lat="44.23862" lon="6.22076">
        <ele>1798.94</ele>
        <time>2021-10-23T10:23:35Z</time>
      </trkpt>
      <trkpt lat="44.23865" lon="6.2206">
        <ele>1799.21</ele>
        <time>2021-10-23T10:23:51Z</time>
      </trkpt>
      <trkpt lat="44.23865" lon="6.22045">
        <ele>1802.13</ele>
        <time>2021-10-23T10:24:09Z</time>
      </trkpt>
      <trkpt lat="44.23865" lon="6.22043">
        <ele>1802.62</ele>
        <time>2021-10-23T10:24:26Z</time>
      </trkpt>
      <trkpt lat="44.23871" lon="6.22024">
        <ele>1805.06</ele>
        <time>2021-10-23T10:24:44Z</time>
      </trkpt>
      <trkpt lat="44.23874" lon="6.22016">
        <ele>1808.55</ele>
        <time>2021-10-23T10:24:55Z</time>
      </trkpt>
      <trkpt lat="44.23875" lon="6.22015">
        <ele>1809.44</ele>
        <time>2021-10-23T10:24:57Z</time>
      </trkpt>
      <trkpt lat="44.23885" lon="6.22002">
        <ele>1812.16</ele>
        <time>2021-10-23T10:25:23Z</time>
      </trkpt>
      <trkpt lat="44.23891" lon="6.21995">
        <ele>1815.3</ele>
        <time>2021-10-23T10:25:40Z</time>
      </trkpt>
      <trkpt lat="44.23897" lon="6.21988">
        <ele>1818.31</ele>
        <time>2021-10-23T10:25:53Z</time>
      </trkpt>
      <trkpt lat="44.23901" lon="6.21978">
        <ele>1821.36</ele>
        <time>2021-10-23T10:26:06Z</time>
      </trkpt>
      <trkpt lat="44.23909" lon="6.21973">
        <ele>1824.58</ele>
        <time>2021-10-23T10:26:19Z</time>
      </trkpt>
      <trkpt lat="44.23913" lon="6.2197">
        <ele>1827.85</ele>
        <time>2021-10-23T10:26:31Z</time>
      </trkpt>
      <trkpt lat="44.23914" lon="6.2197">
        <ele>1828.52</ele>
        <time>2021-10-23T10:26:52Z</time>
      </trkpt>
      <trkpt lat="44.2392" lon="6.21969">
        <ele>1831.67</ele>
        <time>2021-10-23T10:27:08Z</time>
      </trkpt>
      <trkpt lat="44.23924" lon="6.21968">
        <ele>1834.76</ele>
        <time>2021-10-23T10:27:23Z</time>
      </trkpt>
      <trkpt lat="44.2393" lon="6.21967">
        <ele>1837.81</ele>
        <time>2021-10-23T10:27:40Z</time>
      </trkpt>
      <trkpt lat="44.23936" lon="6.21968">
        <ele>1840.95</ele>
        <time>2021-10-23T10:27:55Z</time>
      </trkpt>
      <trkpt lat="44.23939" lon="6.21967">
        <ele>1842.61</ele>
        <time>2021-10-23T10:28:16Z</time>
      </trkpt>
      <trkpt lat="44.23944" lon="6.21965">
        <ele>1845.62</ele>
        <time>2021-10-23T10:28:35Z</time>
      </trkpt>
      <trkpt lat="44.23947" lon="6.21967">
        <ele>1846.97</ele>
        <time>2021-10-23T10:28:54Z</time>
      </trkpt>
      <trkpt lat="44.23952" lon="6.21971">
        <ele>1850.11</ele>
        <time>2021-10-23T10:29:10Z</time>
      </trkpt>
      <trkpt lat="44.23958" lon="6.21975">
        <ele>1851.81</ele>
        <time>2021-10-23T10:29:33Z</time>
      </trkpt>
      <trkpt lat="44.23959" lon="6.21965">
        <ele>1854.86</ele>
        <time>2021-10-23T10:29:58Z</time>
      </trkpt>
      <trkpt lat="44.23959" lon="6.21961">
        <ele>1856.84</ele>
        <time>2021-10-23T10:30:14Z</time>
      </trkpt>
      <trkpt lat="44.23959" lon="6.21952">
        <ele>1859.64</ele>
        <time>2021-10-23T10:30:30Z</time>
      </trkpt>
      <trkpt lat="44.23961" lon="6.21948">
        <ele>1862.4</ele>
        <time>2021-10-23T10:30:48Z</time>
      </trkpt>
      <trkpt lat="44.23964" lon="6.21946">
        <ele>1865.44</ele>
        <time>2021-10-23T10:31:07Z</time>
      </trkpt>
      <trkpt lat="44.23967" lon="6.21944">
        <ele>1867.09</ele>
        <time>2021-10-23T10:31:27Z</time>
      </trkpt>
      <trkpt lat="44.2397" lon="6.21937">
        <ele>1869.98</ele>
        <time>2021-10-23T10:31:49Z</time>
      </trkpt>
      <trkpt lat="44.23973" lon="6.21932">
        <ele>1872.78</ele>
        <time>2021-10-23T10:32:08Z</time>
      </trkpt>
      <trkpt lat="44.23975" lon="6.21931">
        <ele>1873.81</ele>
        <time>2021-10-23T10:32:33Z</time>
      </trkpt>
      <trkpt lat="44.23976" lon="6.21932">
        <ele>1876.12</ele>
        <time>2021-10-23T10:32:55Z</time>
      </trkpt>
      <trkpt lat="44.23983" lon="6.21939">
        <ele>1879.13</ele>
        <time>2021-10-23T10:33:12Z</time>
      </trkpt>
      <trkpt lat="44.23988" lon="6.21943">
        <ele>1882.2</ele>
        <time>2021-10-23T10:33:37Z</time>
      </trkpt>
      <trkpt lat="44.2399" lon="6.21947">
        <ele>1885.05</ele>
        <time>2021-10-23T10:34:00Z</time>
      </trkpt>
      <trkpt lat="44.23992" lon="6.21968">
        <ele>1886.52</ele>
        <time>2021-10-23T10:34:25Z</time>
      </trkpt>
      <trkpt lat="44.23992" lon="6.21967">
        <ele>1887.04</ele>
        <time>2021-10-23T10:34:50Z</time>
      </trkpt>
      <trkpt lat="44.23988" lon="6.21953">
        <ele>1889.71</ele>
        <time>2021-10-23T10:35:13Z</time>
      </trkpt>
      <trkpt lat="44.2399" lon="6.21946">
        <ele>1892.73</ele>
        <time>2021-10-23T10:35:33Z</time>
      </trkpt>
      <trkpt lat="44.23991" lon="6.21945">
        <ele>1894.21</ele>
        <time>2021-10-23T10:35:51Z</time>
      </trkpt>
      <trkpt lat="44.23994" lon="6.21943">
        <ele>1896.4</ele>
        <time>2021-10-23T10:36:15Z</time>
      </trkpt>
      <trkpt lat="44.23997" lon="6.2194">
        <ele>1897.04</ele>
        <time>2021-10-23T10:36:43Z</time>
      </trkpt>
      <trkpt lat="44.24" lon="6.21938">
        <ele>1900.17</ele>
        <time>2021-10-23T10:37:02Z</time>
      </trkpt>
      <trkpt lat="44.24002" lon="6.21928">
        <ele>1903.11</ele>
        <time>2021-10-23T10:37:16Z</time>
      </trkpt>
      <trkpt lat="44.24008" lon="6.21921">
        <ele>1905.5</ele>
        <time>2021-10-23T10:37:32Z</time>
      </trkpt>
      <trkpt lat="44.24015" lon="6.21915">
        <ele>1905.17</ele>
        <time>2021-10-23T10:37:41Z</time>
      </trkpt>
      <trkpt lat="44.24018" lon="6.21914">
        <ele>1904.96</ele>
        <time>2021-10-23T10:37:44Z</time>
      </trkpt>
      <trkpt lat="44.24027" lon="6.21908">
        <ele>1903.99</ele>
        <time>2021-10-23T10:38:00Z</time>
      </trkpt>
      <trkpt lat="44.24034" lon="6.21901">
        <ele>1904.38</ele>
        <time>2021-10-23T10:38:18Z</time>
      </trkpt>
      <trkpt lat="44.24045" lon="6.219">
        <ele>1906.61</ele>
        <time>2021-10-23T10:38:35Z</time>
      </trkpt>
      <trkpt lat="44.24046" lon="6.219">
        <ele>1907.12</ele>
        <time>2021-10-23T10:38:58Z</time>
      </trkpt>
      <trkpt lat="44.24046" lon="6.21898">
        <ele>1907.17</ele>
        <time>2021-10-23T10:39:19Z</time>
      </trkpt>
      <trkpt lat="44.24046" lon="6.21899">
        <ele>1906.88</ele>
        <time>2021-10-23T10:39:39Z</time>
      </trkpt>
      <trkpt lat="44.24045" lon="6.21899">
        <ele>1906.88</ele>
        <time>2021-10-23T10:40:00Z</time>
      </trkpt>
      <trkpt lat="44.24046" lon="6.21898">
        <ele>1906.88</ele>
        <time>2021-10-23T10:40:27Z</time>
      </trkpt>
      <trkpt lat="44.24045" lon="6.21898">
        <ele>1906.88</ele>
        <time>2021-10-23T10:40:57Z</time>
      </trkpt>
      <trkpt lat="44.24046" lon="6.21898">
        <ele>1906.88</ele>
        <time>2021-10-23T10:41:19Z</time>
      </trkpt>
      <trkpt lat="44.24046" lon="6.21899">
        <ele>1906.88</ele>
        <time>2021-10-23T10:41:49Z</time>
      </trkpt>
      <trkpt lat="44.24046" lon="6.21899">
        <ele>1906.88</ele>
        <time>2021-10-23T10:42:39Z</time>
      </trkpt>
      <trkpt lat="44.24045" lon="6.21899">
        <ele>1906.88</ele>
        <time>2021-10-23T10:43:05Z</time>
      </trkpt>
    </trkseg>
  </trk>
</gpx>